Time;durP1;ratioP1;P1;durP2;ratioP2;P2;SDS_P1;SDS_P2;PMS_P1;PMS_P2;Temp;Humidity;BMP_temperature;BMP_pressure;BME280_temperature;BME280_humidity;BME280_pressure;Samples;Min_cycle;Max_cycle;Signal;HPM_P1;HPM_P2
2021/09/09 00:00:08;;;;;;;13.15;11.05;;;;;;;16.20;77.54;100498.63;691785;28;1232;-51
2021/09/09 00:00:32;;;;;;;12.88;11.20;;;;;;;16.08;77.92;100502.53;694136;28;801;-53
2021/09/09 00:00:53;;;;;;;13.00;11.60;;;;;;;15.98;77.62;100499.31;693552;28;1331;-53
2021/09/09 00:01:14;;;;;;;12.23;11.00;;;;;;;16.08;77.04;100500.75;693226;28;3644;-54
2021/09/09 00:01:35;;;;;;;12.35;11.07;;;;;;;16.04;78.50;100493.84;693013;28;4485;-54
2021/09/09 00:01:56;;;;;;;12.65;11.35;;;;;;;15.97;78.57;100498.41;693554;28;1676;-54
2021/09/09 00:02:16;;;;;;;12.60;11.30;;;;;;;16.02;77.40;100506.22;693092;28;1458;-53
2021/09/09 00:02:38;;;;;;;11.65;10.45;;;;;;;16.19;76.33;100495.16;692652;28;1950;-53
2021/09/09 00:02:59;;;;;;;12.43;11.13;;;;;;;16.17;77.94;100496.94;694260;28;1325;-51
2021/09/09 00:03:20;;;;;;;12.57;11.15;;;;;;;16.04;78.52;100500.88;693704;28;1146;-54
2021/09/09 00:03:43;;;;;;;13.25;11.05;;;;;;;15.99;77.83;100488.72;694735;28;846;-52
2021/09/09 00:04:04;;;;;;;13.50;11.13;;;;;;;16.07;77.21;100500.78;693434;28;3717;-54
2021/09/09 00:04:25;;;;;;;12.17;10.83;;;;;;;16.14;76.51;100499.69;692333;28;4431;-51
2021/09/09 00:04:45;;;;;;;12.32;10.55;;;;;;;16.16;76.64;100496.09;694170;28;1585;-52
2021/09/09 00:05:08;;;;;;;12.93;11.30;;;;;;;16.17;77.03;100483.75;693400;28;1048;-58
2021/09/09 00:05:28;;;;;;;13.35;10.93;;;;;;;16.20;76.69;100491.59;692987;28;895;-53
2021/09/09 00:05:49;;;;;;;13.55;11.15;;;;;;;16.15;77.42;100498.78;689880;28;1244;-50
2021/09/09 00:06:10;;;;;;;12.43;11.13;;;;;;;16.07;78.39;100493.72;690165;28;1541;-54
2021/09/09 00:06:31;;;;;;;12.30;11.00;;;;;;;16.05;77.88;100492.03;690954;28;1255;-53
2021/09/09 00:06:53;;;;;;;12.48;11.02;;;;;;;16.00;78.54;100498.34;689394;28;3241;-52
2021/09/09 00:07:14;;;;;;;12.90;11.35;;;;;;;15.93;79.58;100495.94;690041;28;4052;-54
2021/09/09 00:07:36;;;;;;;13.55;12.10;;;;;;;15.86;79.49;100494.38;689244;28;4386;-53
2021/09/09 00:07:58;;;;;;;12.35;11.05;;;;;;;15.90;77.67;100485.47;692304;28;850;-51
2021/09/09 00:08:19;;;;;;;12.65;11.05;;;;;;;15.91;79.08;100495.09;690654;28;1300;-51
2021/09/09 00:08:41;;;;;;;12.20;10.95;;;;;;;15.98;77.54;100486.97;690609;28;1465;-53
2021/09/09 00:09:04;;;;;;;11.65;10.45;;;;;;;16.13;76.50;100492.69;691651;28;974;-51
2021/09/09 00:09:25;;;;;;;11.73;10.52;;;;;;;16.27;76.47;100487.84;692231;28;1694;-54
2021/09/09 00:09:45;;;;;;;12.33;11.03;;;;;;;16.21;78.10;100488.03;694094;28;3601;-52
2021/09/09 00:10:06;;;;;;;12.02;10.75;;;;;;;16.23;76.32;100483.59;693194;28;2740;-52
2021/09/09 00:10:27;;;;;;;12.70;11.02;;;;;;;16.13;77.08;100493.56;691839;28;4584;-53
2021/09/09 00:10:48;;;;;;;12.48;11.13;;;;;;;16.04;78.13;100485.06;693320;28;1479;-53
2021/09/09 00:11:10;;;;;;;12.52;11.18;;;;;;;15.98;77.45;100486.97;692708;28;1552;-53
2021/09/09 00:11:31;;;;;;;12.25;11.05;;;;;;;15.97;77.20;100482.59;693062;28;1233;-53
2021/09/09 00:11:52;;;;;;;12.27;10.73;;;;;;;16.00;77.21;100485.16;694726;28;864;-52
2021/09/09 00:12:12;;;;;;;12.47;10.90;;;;;;;16.06;76.65;100485.88;692701;28;1312;-54
2021/09/09 00:12:33;;;;;;;11.63;10.43;;;;;;;16.17;76.26;100481.13;693030;28;3825;-52
2021/09/09 00:12:55;;;;;;;12.23;10.98;;;;;;;16.08;78.56;100487.56;690403;28;4433;-54
2021/09/09 00:13:16;;;;;;;12.32;11.13;;;;;;;16.05;77.29;100486.78;688401;28;1719;-52
2021/09/09 00:13:37;;;;;;;12.52;11.30;;;;;;;16.09;77.33;100485.78;690812;28;5005;-50
2021/09/09 00:13:59;;;;;;;12.05;10.65;;;;;;;16.07;76.86;100483.19;690086;28;1512;-52
2021/09/09 00:14:21;;;;;;;12.93;10.95;;;;;;;16.06;77.33;100488.50;690538;28;1176;-51
2021/09/09 00:14:43;;;;;;;12.65;11.30;;;;;;;15.95;77.81;100481.81;692204;28;847;-51
2021/09/09 00:15:05;;;;;;;12.48;11.10;;;;;;;16.06;76.44;100489.41;691981;28;974;-51
2021/09/09 00:15:26;;;;;;;12.35;11.05;;;;;;;16.23;75.70;100482.75;694598;28;1348;-53
2021/09/09 00:15:47;;;;;;;11.88;10.55;;;;;;;16.29;76.68;100490.44;692803;28;1573;-53
2021/09/09 00:16:08;;;;;;;12.30;11.00;;;;;;;16.20;77.24;100488.97;692366;28;4282;-52
2021/09/09 00:16:28;;;;;;;12.82;11.02;;;;;;;16.09;77.98;100486.66;693327;28;4374;-51
2021/09/09 00:16:51;;;;;;;12.60;10.73;;;;;;;15.96;77.63;100478.25;693420;28;972;-51
2021/09/09 00:17:12;;;;;;;12.20;10.90;;;;;;;16.03;76.89;100484.19;691873;28;2628;-52
2021/09/09 00:17:32;;;;;;;12.07;10.77;;;;;;;16.13;76.33;100484.78;692391;28;1561;-55
2021/09/09 00:17:53;;;;;;;12.18;10.90;;;;;;;16.11;77.15;100478.69;692461;28;2072;-54
2021/09/09 00:18:14;;;;;;;12.40;11.10;;;;;;;16.09;76.57;100484.03;693511;28;3467;-51
2021/09/09 00:18:35;;;;;;;12.00;10.75;;;;;;;16.19;75.99;100476.69;690654;28;3789;-53
2021/09/09 00:18:55;;;;;;;12.57;10.68;;;;;;;16.27;75.64;100477.31;690460;28;1520;-53
2021/09/09 00:19:16;;;;;;;12.23;10.97;;;;;;;16.17;77.40;100478.50;689252;28;1385;-54
2021/09/09 00:19:38;;;;;;;12.63;10.98;;;;;;;16.05;77.18;100481.50;690590;28;6706;-52
2021/09/09 00:19:59;;;;;;;12.70;11.00;;;;;;;16.18;75.69;100474.94;692230;28;1625;-55
2021/09/09 00:20:19;;;;;;;12.43;11.18;;;;;;;16.20;77.13;100485.44;692433;28;1544;-53
2021/09/09 00:20:41;;;;;;;12.82;11.20;;;;;;;16.12;77.20;100483.91;693987;28;1935;-54
2021/09/09 00:21:03;;;;;;;13.77;11.10;;;;;;;16.01;77.56;100478.13;692689;28;3773;-55
2021/09/09 00:21:25;;;;;;;12.30;11.02;;;;;;;15.94;78.07;100482.69;693757;28;2089;-55
2021/09/09 00:21:46;;;;;;;12.23;10.93;;;;;;;15.96;77.16;100478.25;692295;28;4208;-51
2021/09/09 00:22:07;;;;;;;12.95;11.10;;;;;;;15.98;78.13;100476.44;693322;28;1788;-52
2021/09/09 00:22:27;;;;;;;12.38;11.02;;;;;;;15.97;77.61;100473.84;693068;28;4701;-52
2021/09/09 00:22:48;;;;;;;12.67;11.00;;;;;;;15.97;77.73;100479.97;693586;28;1548;-53
2021/09/09 00:23:08;;;;;;;12.27;11.02;;;;;;;15.92;78.54;100476.63;693324;28;920;-53
2021/09/09 00:23:30;;;;;;;12.30;11.10;;;;;;;15.88;77.89;100477.63;693934;28;925;-53
2021/09/09 00:23:53;;;;;;;11.48;10.38;;;;;;;16.03;76.62;100476.28;693175;28;4301;-55
2021/09/09 00:24:15;;;;;;;11.80;10.60;;;;;;;16.16;75.94;100472.38;689833;28;4234;-55
2021/09/09 00:24:36;;;;;;;11.93;10.73;;;;;;;16.19;77.40;100474.03;690594;28;1797;-51
2021/09/09 00:24:57;;;;;;;12.07;10.82;;;;;;;16.10;76.99;100474.31;693604;28;1469;-53
2021/09/09 00:25:17;;;;;;;12.07;10.87;;;;;;;16.16;76.48;100474.16;693381;28;4567;-53
2021/09/09 00:25:38;;;;;;;12.15;10.95;;;;;;;16.10;77.82;100469.94;692404;28;2273;-51
2021/09/09 00:25:59;;;;;;;12.52;11.18;;;;;;;16.00;77.51;100474.63;693320;28;1733;-52
2021/09/09 00:26:20;;;;;;;12.32;11.00;;;;;;;15.98;76.83;100473.78;692463;28;1384;-51
2021/09/09 00:26:41;;;;;;;11.68;10.45;;;;;;;16.11;76.01;100476.06;692560;28;3746;-54
2021/09/09 00:27:03;;;;;;;11.60;10.43;;;;;;;16.17;76.42;100467.94;693059;28;2047;-55
2021/09/09 00:27:23;;;;;;;11.63;10.43;;;;;;;16.14;77.04;100473.31;693226;28;1713;-55
2021/09/09 00:27:44;;;;;;;11.77;10.27;;;;;;;16.15;76.47;100473.25;693498;28;1597;-54
2021/09/09 00:28:04;;;;;;;11.77;10.57;;;;;;;16.07;77.42;100474.41;693159;28;1607;-55
2021/09/09 00:28:25;;;;;;;12.00;10.80;;;;;;;16.08;76.50;100473.53;691050;28;4323;-52
2021/09/09 00:28:46;;;;;;;11.95;10.70;;;;;;;16.21;75.72;100476.63;693990;28;1639;-52
2021/09/09 00:29:06;;;;;;;11.60;10.40;;;;;;;16.32;75.09;100479.78;692633;28;1319;-51
2021/09/09 00:29:28;;;;;;;12.05;10.50;;;;;;;16.39;75.68;100472.56;693231;28;3819;-53
2021/09/09 00:29:52;;;;;;;12.27;11.07;;;;;;;16.28;76.74;100472.88;692239;28;4293;-50
2021/09/09 00:30:12;;;;;;;12.27;10.97;;;;;;;16.18;76.55;100472.31;693068;28;1582;-52
2021/09/09 00:30:35;;;;;;;12.63;11.32;;;;;;;16.21;76.11;100472.22;692898;28;1696;-51
2021/09/09 00:31:00;;;;;;;12.00;10.80;;;;;;;16.30;75.00;100469.28;693155;28;2082;-50
2021/09/09 00:31:20;;;;;;;12.38;10.70;;;;;;;16.37;75.69;100477.88;691374;28;4382;-53
2021/09/09 00:31:43;;;;;;;12.95;10.77;;;;;;;16.26;76.11;100474.72;692064;28;1424;-55
2021/09/09 00:32:04;;;;;;;12.17;10.90;;;;;;;16.23;76.61;100474.81;693518;28;1048;-50
2021/09/09 00:32:26;;;;;;;13.15;10.80;;;;;;;16.28;75.33;100479.03;692582;28;3375;-52
2021/09/09 00:32:46;;;;;;;12.10;10.35;;;;;;;16.38;74.78;100470.81;694012;28;4497;-53
2021/09/09 00:33:08;;;;;;;12.00;10.80;;;;;;;16.28;77.30;100472.88;693404;28;1667;-52
2021/09/09 00:33:29;;;;;;;11.85;10.65;;;;;;;16.19;77.09;100474.03;693800;28;1574;-54
2021/09/09 00:33:50;;;;;;;12.05;10.75;;;;;;;16.12;77.05;100478.63;693189;28;930;-52
2021/09/09 00:34:11;;;;;;;11.70;10.52;;;;;;;16.12;76.27;100475.16;690864;28;1407;-52
2021/09/09 00:34:32;;;;;;;11.93;10.73;;;;;;;16.12;76.56;100478.63;692251;28;4300;-51
2021/09/09 00:34:53;;;;;;;12.23;10.93;;;;;;;16.11;77.08;100470.78;693774;28;915;-51
2021/09/09 00:35:15;;;;;;;11.90;10.68;;;;;;;16.12;76.62;100473.38;693307;28;3909;-50
2021/09/09 00:35:37;;;;;;;13.10;11.13;;;;;;;16.08;77.99;100477.00;691824;28;4409;-54
2021/09/09 00:35:57;;;;;;;12.85;11.50;;;;;;;15.95;78.49;100473.88;693199;28;1712;-53
2021/09/09 00:36:18;;;;;;;12.35;11.05;;;;;;;15.83;78.67;100466.34;692773;28;1568;-55
2021/09/09 00:36:38;;;;;;;11.70;10.50;;;;;;;15.77;78.70;100471.75;693286;28;1615;-51
2021/09/09 00:36:58;;;;;;;12.23;10.65;;;;;;;15.73;78.96;100476.25;693404;28;924;-52
2021/09/09 00:37:19;;;;;;;12.17;10.83;;;;;;;15.74;78.05;100471.84;693420;28;4499;-53
2021/09/09 00:37:40;;;;;;;11.57;10.37;;;;;;;15.84;77.30;100473.34;693113;28;1252;-53
2021/09/09 00:38:01;;;;;;;11.75;10.55;;;;;;;15.90;77.13;100473.16;692870;28;3311;-51
2021/09/09 00:38:21;;;;;;;11.75;10.45;;;;;;;16.04;76.04;100469.25;692292;28;1502;-50
2021/09/09 00:38:42;;;;;;;11.70;10.50;;;;;;;16.09;76.24;100468.19;692500;28;1608;-55
2021/09/09 00:39:02;;;;;;;11.98;10.77;;;;;;;16.06;78.08;100472.69;692549;28;1290;-52
2021/09/09 00:39:23;;;;;;;12.37;11.10;;;;;;;15.98;78.49;100470.31;694216;28;1929;-52
2021/09/09 00:39:43;;;;;;;12.30;11.10;;;;;;;15.90;78.39;100462.63;693362;28;3846;-55
2021/09/09 00:40:04;;;;;;;12.23;11.00;;;;;;;15.88;78.54;100463.56;692205;28;904;-54
2021/09/09 00:40:24;;;;;;;12.30;11.00;;;;;;;15.85;77.81;100471.56;691248;28;4814;-51
2021/09/09 00:40:45;;;;;;;12.03;10.83;;;;;;;15.83;77.66;100461.94;693598;28;1075;-55
2021/09/09 00:41:05;;;;;;;12.40;11.20;;;;;;;15.87;78.46;100467.97;692644;28;4031;-52
2021/09/09 00:41:30;;;;;;;12.43;11.13;;;;;;;15.86;77.65;100463.63;692948;28;1118;-51
2021/09/09 00:41:54;;;;;;;11.75;10.52;;;;;;;16.06;76.56;100467.41;694607;28;796;-52
2021/09/09 00:42:14;;;;;;;11.93;10.73;;;;;;;16.08;77.56;100465.59;692900;28;1146;-51
2021/09/09 00:42:35;;;;;;;12.23;11.03;;;;;;;15.96;77.88;100466.84;693425;28;1788;-54
2021/09/09 00:42:55;;;;;;;12.43;11.13;;;;;;;15.99;76.70;100470.25;693332;28;1552;-51
2021/09/09 00:43:15;;;;;;;12.03;10.80;;;;;;;16.09;75.86;100468.19;693275;28;1391;-53
2021/09/09 00:43:36;;;;;;;12.02;10.73;;;;;;;16.03;78.51;100457.81;693014;28;4573;-55
2021/09/09 00:43:56;;;;;;;11.93;10.63;;;;;;;15.93;78.98;100461.66;693868;28;3581;-53
2021/09/09 00:44:22;;;;;;;11.93;10.68;;;;;;;15.87;78.96;100460.06;691899;28;1885;-52
2021/09/09 00:44:42;;;;;;;12.13;10.93;;;;;;;15.88;77.84;100453.91;692892;28;1208;-50
2021/09/09 00:45:03;;;;;;;12.27;11.00;;;;;;;15.82;79.18;100465.50;691620;28;1584;-51
2021/09/09 00:45:24;;;;;;;12.75;11.13;;;;;;;15.76;78.95;100459.50;693798;28;965;-54
2021/09/09 00:45:51;;;;;;;13.63;11.47;;;;;;;15.75;77.82;100458.63;693545;28;1441;-52
2021/09/09 00:46:12;;;;;;;12.15;10.95;;;;;;;15.80;77.62;100455.91;692997;28;960;-53
2021/09/09 00:46:32;;;;;;;12.10;10.90;;;;;;;15.92;76.99;100452.91;692056;28;4417;-55
2021/09/09 00:47:19;;;;;;;12.00;10.80;;;;;;;15.94;77.17;100461.63;693937;28;4382;-53
2021/09/09 00:47:40;;;;;;;12.15;10.85;;;;;;;15.93;77.25;100459.03;690012;28;1907;-52
2021/09/09 00:48:00;;;;;;;12.30;11.07;;;;;;;15.89;77.61;100454.75;692654;28;1842;-55
2021/09/09 00:48:22;;;;;;;12.47;11.10;;;;;;;15.88;77.16;100458.28;692580;28;1220;-53
2021/09/09 00:48:43;;;;;;;12.32;11.05;;;;;;;15.84;78.16;100457.53;693130;28;1797;-51
2021/09/09 00:49:03;;;;;;;12.05;10.85;;;;;;;15.82;77.48;100459.34;693576;28;1065;-55
2021/09/09 00:49:23;;;;;;;11.43;10.23;;;;;;;15.93;76.59;100459.03;691994;28;4364;-51
2021/09/09 00:49:44;;;;;;;12.20;10.30;;;;;;;16.00;76.66;100461.44;692426;28;3815;-53
2021/09/09 00:50:05;;;;;;;11.70;10.50;;;;;;;15.93;78.48;100457.25;692523;28;2037;-52
2021/09/09 00:50:25;;;;;;;12.02;10.82;;;;;;;15.86;78.62;100466.25;693021;28;1564;-53
2021/09/09 00:50:46;;;;;;;12.10;10.90;;;;;;;15.77;78.81;100461.22;692653;28;1581;-52
2021/09/09 00:51:06;;;;;;;12.30;11.00;;;;;;;15.74;78.87;100456.03;692836;28;1696;-54
2021/09/09 00:51:27;;;;;;;12.93;10.98;;;;;;;15.70;78.15;100457.03;694874;28;1484;-53
2021/09/09 00:51:47;;;;;;;12.93;11.10;;;;;;;15.74;77.37;100448.13;693124;28;1366;-53
2021/09/09 00:52:10;;;;;;;12.20;10.90;;;;;;;15.83;76.99;100456.66;692286;28;4099;-53
2021/09/09 00:52:31;;;;;;;12.02;10.82;;;;;;;15.94;76.29;100455.50;691402;28;4763;-54
2021/09/09 00:52:51;;;;;;;12.27;11.07;;;;;;;15.90;78.32;100451.22;692940;28;2131;-51
2021/09/09 00:53:12;;;;;;;12.02;10.82;;;;;;;15.81;78.07;100453.22;692538;28;1301;-52
2021/09/09 00:53:34;;;;;;;12.18;10.90;;;;;;;15.77;77.81;100454.19;693301;28;1583;-53
2021/09/09 00:53:54;;;;;;;12.27;10.98;;;;;;;15.79;77.96;100455.03;693205;28;1514;-52
2021/09/09 00:54:15;;;;;;;12.07;10.85;;;;;;;15.84;77.75;100454.91;693046;28;1481;-54
2021/09/09 00:54:35;;;;;;;12.23;10.45;;;;;;;15.83;77.76;100453.16;693201;28;1642;-51
2021/09/09 00:54:56;;;;;;;12.40;11.10;;;;;;;15.79;78.83;100456.78;694142;28;3441;-52
2021/09/09 00:55:18;;;;;;;12.77;11.20;;;;;;;15.76;77.97;100449.81;691825;28;1612;-52
2021/09/09 00:55:38;;;;;;;12.60;11.00;;;;;;;15.72;78.91;100453.44;693254;28;4675;-49
2021/09/09 00:55:59;;;;;;;12.17;10.87;;;;;;;15.66;79.23;100446.59;691090;28;1627;-55
2021/09/09 00:56:20;;;;;;;12.98;11.57;;;;;;;15.64;79.69;100452.81;689807;28;1661;-53
2021/09/09 00:56:41;;;;;;;12.50;11.20;;;;;;;15.60;79.33;100444.16;689484;28;1581;-55
2021/09/09 00:57:04;;;;;;;12.57;10.98;;;;;;;15.61;79.67;100443.22;693433;28;1399;-54
2021/09/09 00:57:24;;;;;;;12.35;11.05;;;;;;;15.62;79.20;100447.59;693856;28;1608;-50
2021/09/09 00:57:46;;;;;;;12.60;11.30;;;;;;;15.65;78.57;100441.38;692375;28;1554;-49
2021/09/09 00:58:09;;;;;;;13.32;11.10;;;;;;;15.68;78.19;100440.41;692762;28;1133;-52
2021/09/09 00:58:30;;;;;;;11.65;10.45;;;;;;;15.77;77.06;100441.00;691776;28;4406;-55
2021/09/09 00:58:51;;;;;;;11.90;10.70;;;;;;;15.81;77.67;100439.16;692525;28;1281;-50
2021/09/09 00:59:11;;;;;;;12.65;11.35;;;;;;;15.72;78.52;100439.41;692265;28;1482;-52
2021/09/09 00:59:33;;;;;;;12.63;11.27;;;;;;;15.64;79.07;100440.47;690791;28;1910;-52
2021/09/09 00:59:54;;;;;;;11.90;10.48;;;;;;;15.59;77.88;100442.41;691343;28;1524;-51
2021/09/09 01:00:15;;;;;;;12.38;10.50;;;;;;;15.61;79.17;100437.94;692798;28;1610;-54
2021/09/09 01:00:37;;;;;;;12.20;10.90;;;;;;;15.59;79.00;100437.16;692587;28;1373;-52
2021/09/09 01:00:57;;;;;;;11.93;10.48;;;;;;;15.60;79.27;100443.25;693288;28;1626;-52
2021/09/09 01:01:18;;;;;;;12.25;11.02;;;;;;;15.52;79.76;100440.00;691995;28;4454;-55
2021/09/09 01:01:38;;;;;;;12.37;11.17;;;;;;;15.49;79.20;100440.94;692642;28;1785;-51
2021/09/09 01:01:59;;;;;;;12.50;10.70;;;;;;;15.57;78.61;100440.72;693712;28;1332;-55
2021/09/09 01:02:19;;;;;;;11.98;10.68;;;;;;;15.58;79.17;100434.56;693414;28;1288;-53
2021/09/09 01:02:40;;;;;;;12.10;10.90;;;;;;;15.62;78.08;100442.31;693634;28;1696;-53
2021/09/09 01:03:00;;;;;;;12.60;11.30;;;;;;;15.59;79.19;100434.50;692864;28;1574;-51
2021/09/09 01:03:21;;;;;;;12.88;11.57;;;;;;;15.54;79.21;100436.41;693064;28;1223;-50
2021/09/09 01:03:41;;;;;;;12.00;10.80;;;;;;;15.58;78.87;100432.78;692585;28;3628;-54
2021/09/09 01:04:01;;;;;;;12.05;10.70;;;;;;;15.56;79.12;100442.50;691866;28;4231;-54
2021/09/09 01:04:22;;;;;;;11.80;10.60;;;;;;;15.57;79.02;100438.94;692559;28;4477;-54
2021/09/09 01:04:42;;;;;;;12.00;10.80;;;;;;;15.54;79.02;100438.19;693921;28;1304;-52
2021/09/09 01:05:03;;;;;;;12.00;10.80;;;;;;;15.50;79.12;100437.41;693305;28;1237;-53
2021/09/09 01:05:26;;;;;;;11.52;10.32;;;;;;;15.59;78.22;100439.78;693584;28;1548;-52
2021/09/09 01:05:47;;;;;;;12.25;10.95;;;;;;;15.57;79.88;100433.69;692535;28;1281;-53
2021/09/09 01:06:07;;;;;;;12.27;10.93;;;;;;;15.48;79.84;100439.22;692567;28;1020;-56
2021/09/09 01:06:28;;;;;;;12.70;11.13;;;;;;;15.46;78.71;100441.03;692809;28;3343;-50
2021/09/09 01:06:51;;;;;;;13.00;11.15;;;;;;;15.52;78.37;100435.59;692711;28;4727;-51
2021/09/09 01:07:11;;;;;;;12.15;10.85;;;;;;;15.58;79.03;100437.19;693359;28;1713;-51
2021/09/09 01:07:32;;;;;;;13.00;11.70;;;;;;;15.52;79.56;100442.63;692283;28;4366;-54
2021/09/09 01:07:52;;;;;;;12.68;11.43;;;;;;;15.55;78.25;100438.13;692040;28;907;-54
2021/09/09 01:08:13;;;;;;;11.57;10.38;;;;;;;15.70;77.08;100434.19;692404;28;1880;-54
2021/09/09 01:08:34;;;;;;;11.70;10.50;;;;;;;15.72;78.21;100431.50;692501;28;1590;-53
2021/09/09 01:08:54;;;;;;;12.63;10.98;;;;;;;15.73;77.30;100433.22;694391;28;864;-53
2021/09/09 01:09:15;;;;;;;12.50;10.88;;;;;;;15.73;78.29;100434.09;692781;28;2387;-52
2021/09/09 01:09:35;;;;;;;12.70;11.20;;;;;;;15.61;78.54;100434.47;692016;28;4349;-54
2021/09/09 01:09:58;;;;;;;12.77;11.47;;;;;;;15.53;78.29;100431.19;692890;28;1864;-51
2021/09/09 01:10:18;;;;;;;11.82;10.63;;;;;;;15.63;77.17;100438.78;691999;28;4505;-55
2021/09/09 01:10:38;;;;;;;11.50;10.30;;;;;;;15.74;77.15;100432.31;692582;28;1391;-54
2021/09/09 01:10:59;;;;;;;11.80;10.60;;;;;;;15.78;76.72;100436.59;692336;28;1448;-51
2021/09/09 01:11:20;;;;;;;12.18;10.98;;;;;;;15.83;76.99;100434.72;692540;28;1478;-51
2021/09/09 01:11:40;;;;;;;12.67;11.20;;;;;;;15.81;77.09;100429.50;692636;28;1377;-53
2021/09/09 01:12:01;;;;;;;12.52;11.23;;;;;;;15.77;77.80;100433.09;692021;28;2960;-51
2021/09/09 01:12:21;;;;;;;12.80;11.32;;;;;;;15.72;77.86;100437.63;692421;28;4006;-51
2021/09/09 01:12:42;;;;;;;12.40;11.13;;;;;;;15.69;78.17;100434.22;694268;28;1932;-53
2021/09/09 01:13:07;;;;;;;12.10;10.70;;;;;;;15.68;78.26;100435.16;692016;28;1443;-54
2021/09/09 01:13:28;;;;;;;12.90;11.30;;;;;;;15.61;78.75;100435.31;692872;28;4444;-53
2021/09/09 01:13:50;;;;;;;13.50;11.23;;;;;;;15.60;78.29;100428.34;691702;28;898;-53
2021/09/09 01:14:12;;;;;;;12.27;10.65;;;;;;;15.75;76.84;100428.78;692502;28;1581;-53
2021/09/09 01:14:33;;;;;;;11.93;10.73;;;;;;;15.76;78.62;100434.00;693165;28;1367;-53
2021/09/09 01:14:53;;;;;;;12.40;11.10;;;;;;;15.71;77.55;100433.25;691786;28;3878;-53
2021/09/09 01:15:14;;;;;;;11.77;10.63;;;;;;;15.70;78.48;100428.03;692574;28;3800;-54
2021/09/09 01:15:44;;;;;;;11.93;10.73;;;;;;;15.71;77.46;100428.00;693733;28;1826;-50
2021/09/09 01:16:06;;;;;;;11.88;10.68;;;;;;;15.72;77.95;100434.16;691217;28;1326;-50
2021/09/09 01:16:27;;;;;;;12.30;11.00;;;;;;;15.68;79.00;100432.50;693342;28;4623;-52
2021/09/09 01:16:48;;;;;;;13.67;11.40;;;;;;;15.63;78.07;100425.59;693534;28;1244;-52
2021/09/09 01:17:09;;;;;;;12.60;10.90;;;;;;;15.68;78.20;100424.59;692600;28;1079;-52
2021/09/09 01:17:29;;;;;;;12.38;11.18;;;;;;;15.65;78.81;100425.56;693184;28;1214;-55
2021/09/09 01:17:50;;;;;;;12.20;10.93;;;;;;;15.60;79.63;100432.72;692823;28;3905;-55
2021/09/09 01:18:13;;;;;;;13.07;10.75;;;;;;;15.54;80.05;100428.50;693305;28;4209;-51
2021/09/09 01:18:33;;;;;;;11.90;10.60;;;;;;;15.49;80.34;100427.75;693259;28;2023;-51
2021/09/09 01:18:53;;;;;;;12.30;11.00;;;;;;;15.45;78.92;100432.28;692865;28;1910;-52
2021/09/09 01:19:15;;;;;;;12.00;10.80;;;;;;;15.48;78.89;100421.66;693599;28;1646;-52
2021/09/09 01:19:36;;;;;;;11.95;10.48;;;;;;;15.51;78.71;100423.34;691972;28;4395;-52
2021/09/09 01:19:56;;;;;;;13.15;10.98;;;;;;;15.52;78.99;100426.81;692367;28;1597;-54
2021/09/09 01:20:17;;;;;;;11.90;10.63;;;;;;;15.50;79.38;100426.88;691915;28;1262;-53
2021/09/09 01:20:40;;;;;;;11.88;10.60;;;;;;;15.44;79.92;100425.28;692494;28;4074;-52
2021/09/09 01:21:01;;;;;;;12.23;10.95;;;;;;;15.44;79.03;100427.06;693221;28;1444;-53
2021/09/09 01:21:23;;;;;;;12.03;10.83;;;;;;;15.53;78.22;100428.56;692349;28;1862;-54
2021/09/09 01:21:43;;;;;;;11.90;10.70;;;;;;;15.55;79.38;100424.97;692212;28;1352;-50
2021/09/09 01:22:04;;;;;;;12.43;11.13;;;;;;;15.52;79.63;100425.06;691786;28;1699;-51
2021/09/09 01:22:24;;;;;;;12.38;11.10;;;;;;;15.50;79.09;100422.44;689761;28;4749;-55
2021/09/09 01:22:45;;;;;;;12.20;10.90;;;;;;;15.48;79.21;100418.16;689565;28;1097;-51
2021/09/09 01:23:06;;;;;;;11.70;10.50;;;;;;;15.50;78.67;100421.59;689143;28;1329;-52
2021/09/09 01:23:27;;;;;;;12.05;10.77;;;;;;;15.45;80.05;100423.50;693019;28;3404;-53
2021/09/09 01:23:48;;;;;;;12.95;11.40;;;;;;;15.41;79.44;100414.84;690983;28;4815;-54
2021/09/09 01:24:19;;;;;;;13.88;11.05;;;;;;;15.44;79.25;100416.53;690350;28;1687;-53
2021/09/09 01:24:39;;;;;;;11.75;10.55;;;;;;;15.57;77.68;100417.00;692702;28;1662;-54
2021/09/09 01:25:00;;;;;;;11.60;10.40;;;;;;;15.67;77.15;100418.47;692814;28;1445;-53
2021/09/09 01:25:20;;;;;;;11.80;10.60;;;;;;;15.67;77.89;100421.09;692848;28;4616;-53
2021/09/09 01:25:41;;;;;;;11.80;10.60;;;;;;;15.68;77.44;100419.34;693394;28;1659;-51
2021/09/09 01:26:02;;;;;;;12.07;10.87;;;;;;;15.73;76.53;100414.78;692581;28;1651;-50
2021/09/09 01:26:27;;;;;;;12.23;10.73;;;;;;;15.72;78.04;100411.28;692655;28;4130;-55
2021/09/09 01:26:50;;;;;;;12.10;10.55;;;;;;;15.69;77.44;100421.03;693403;28;1949;-49
2021/09/09 01:27:11;;;;;;;11.88;10.57;;;;;;;15.72;77.07;100420.97;691885;28;1438;-54
2021/09/09 01:27:31;;;;;;;12.03;10.80;;;;;;;15.77;76.67;100422.56;693224;28;1750;-51
2021/09/09 01:27:51;;;;;;;11.45;10.30;;;;;;;15.81;77.67;100415.44;693541;28;1762;-54
2021/09/09 01:28:12;;;;;;;11.83;10.63;;;;;;;15.73;78.14;100417.41;692754;28;1555;-53
2021/09/09 01:28:32;;;;;;;12.20;10.93;;;;;;;15.66;78.71;100416.75;692968;28;4574;-53
2021/09/09 01:28:57;;;;;;;12.07;10.88;;;;;;;15.59;78.13;100410.78;693944;28;1363;-55
2021/09/09 01:29:20;;;;;;;11.65;10.45;;;;;;;15.53;78.29;100424.13;692383;28;1501;-52
2021/09/09 01:29:40;;;;;;;12.02;10.82;;;;;;;15.54;78.55;100417.97;692038;28;3646;-52
2021/09/09 01:30:02;;;;;;;11.60;10.40;;;;;;;15.56;78.24;100416.16;691203;28;1280;-52
2021/09/09 01:30:24;;;;;;;11.90;10.65;;;;;;;15.53;79.28;100415.38;692144;28;1390;-50
2021/09/09 01:30:45;;;;;;;12.63;11.35;;;;;;;15.49;79.74;100419.84;693805;28;1504;-53
2021/09/09 01:31:05;;;;;;;12.38;10.98;;;;;;;15.45;79.81;100415.59;692880;28;1579;-53
2021/09/09 01:31:26;;;;;;;12.10;10.80;;;;;;;15.46;78.82;100417.31;691913;28;4333;-50
2021/09/09 01:31:46;;;;;;;11.52;10.32;;;;;;;15.53;78.16;100416.22;691557;28;3182;-52
2021/09/09 01:32:07;;;;;;;11.93;10.47;;;;;;;15.55;78.98;100413.53;692667;28;4225;-52
2021/09/09 01:32:28;;;;;;;12.52;11.20;;;;;;;15.55;78.26;100419.69;694652;28;1772;-53
2021/09/09 01:32:48;;;;;;;11.93;10.73;;;;;;;15.59;77.71;100420.44;695080;28;1585;-54
2021/09/09 01:33:09;;;;;;;11.37;10.20;;;;;;;15.66;77.25;100420.25;695261;28;1193;-55
2021/09/09 01:33:29;;;;;;;11.73;10.52;;;;;;;15.64;79.05;100416.78;697258;28;1484;-55
2021/09/09 01:33:56;;;;;;;12.13;10.87;;;;;;;15.63;77.77;100411.56;694886;28;1491;-53
2021/09/09 01:34:17;;;;;;;12.10;10.90;;;;;;;15.62;77.95;100413.34;692795;28;1571;-54
2021/09/09 01:34:38;;;;;;;11.88;10.68;;;;;;;15.59;78.04;100418.69;692356;28;4437;-53
2021/09/09 01:34:58;;;;;;;12.35;10.90;;;;;;;15.62;77.12;100413.34;692808;28;1372;-53
2021/09/09 01:35:18;;;;;;;11.98;10.73;;;;;;;15.68;77.38;100419.34;692430;28;4160;-53
2021/09/09 01:35:39;;;;;;;11.73;10.53;;;;;;;15.62;78.37;100413.34;694310;28;1774;-51
2021/09/09 01:35:59;;;;;;;12.32;10.65;;;;;;;15.57;79.26;100415.22;692549;28;1827;-52
2021/09/09 01:36:20;;;;;;;12.60;11.07;;;;;;;15.54;78.56;100414.47;692239;28;1483;-49
2021/09/09 01:36:40;;;;;;;11.57;10.37;;;;;;;15.59;77.69;100413.44;692199;28;1493;-51
2021/09/09 01:37:01;;;;;;;12.07;10.88;;;;;;;15.55;79.21;100417.06;692727;28;1900;-51
2021/09/09 01:37:22;;;;;;;12.32;11.02;;;;;;;15.45;79.26;100415.59;692423;28;4489;-51
2021/09/09 01:37:43;;;;;;;11.93;10.73;;;;;;;15.47;78.54;100411.16;693002;28;2757;-49
2021/09/09 01:38:03;;;;;;;11.57;10.37;;;;;;;15.58;77.33;100419.59;692821;28;1855;-55
2021/09/09 01:38:24;;;;;;;11.70;10.53;;;;;;;15.55;78.96;100417.06;692239;28;4120;-53
2021/09/09 01:38:44;;;;;;;12.38;11.10;;;;;;;15.50;79.38;100409.28;692996;28;1645;-53
2021/09/09 01:39:05;;;;;;;12.63;11.33;;;;;;;15.44;79.57;100416.53;692645;28;1619;-52